Time;durP1;ratioP1;P1;durP2;ratioP2;P2;SDS_P1;SDS_P2;PMS_P1;PMS_P2;Temp;Humidity;BMP_temperature;BMP_pressure;BME280_temperature;BME280_humidity;BME280_pressure;Samples;Min_cycle;Max_cycle;Signal;HPM_P1;HPM_P2
2022/06/25 00:01:32;;;;;;;4.53;3.90;;;;;;;14.71;74.52;96298.72;5053417;28;20098;-60
2022/06/25 00:04:00;;;;;;;4.72;4.18;;;;;;;14.64;74.76;96296.47;5053355;28;20135;-60
2022/06/25 00:06:27;;;;;;;6.63;4.05;;;;;;;14.61;75.30;96299.28;5053279;28;20445;-60
2022/06/25 00:08:54;;;;;;;4.03;3.63;;;;;;;14.57;74.48;96305.66;5053309;28;20045;-60
2022/06/25 00:14:08;;;;;;;5.10;3.63;;;;;;;14.50;74.63;96286.75;5053570;28;20052;-60
2022/06/25 00:16:37;;;;;;;4.80;3.53;;;;;;;14.49;74.72;96292.97;5053237;28;20049;-60
2022/06/25 00:19:05;;;;;;;4.38;3.97;;;;;;;14.42;75.91;96286.31;5053252;28;20087;-60
2022/06/25 00:21:32;;;;;;;8.52;4.90;;;;;;;14.44;75.66;96283.59;5052996;28;20053;-60
2022/06/25 00:23:59;;;;;;;5.40;4.90;;;;;;;14.46;75.34;96287.88;5053090;28;20406;-60
2022/06/25 00:26:27;;;;;;;7.40;4.43;;;;;;;14.47;75.29;96286.91;5053109;28;20045;-60
2022/06/25 00:28:54;;;;;;;4.72;3.88;;;;;;;14.47;75.56;96286.06;5052970;28;20055;-60
2022/06/25 00:31:21;;;;;;;6.53;3.65;;;;;;;14.47;75.26;96294.81;5052959;28;20041;-60
2022/06/25 00:33:50;;;;;;;5.07;4.57;;;;;;;14.42;75.39;96281.06;5052778;28;20045;-59
2022/06/25 00:36:17;;;;;;;5.50;4.50;;;;;;;14.45;75.65;96275.63;5052851;28;20045;-60
2022/06/25 00:38:45;;;;;;;6.53;4.00;;;;;;;14.46;75.54;96274.72;5052905;28;20051;-60
2022/06/25 00:41:13;;;;;;;4.70;4.30;;;;;;;14.47;75.91;96271.13;5053163;28;20044;-60
2022/06/25 00:43:41;;;;;;;5.90;4.28;;;;;;;14.49;75.62;96274.53;5052982;28;20179;-60
2022/06/25 00:46:08;;;;;;;7.07;4.43;;;;;;;14.50;75.15;96272.72;5053086;28;20434;-60
2022/06/25 00:48:35;;;;;;;5.22;4.03;;;;;;;14.45;75.26;96264.28;5052904;28;20073;-60
2022/06/25 00:51:11;;;;;;;6.85;3.90;;;;;;;14.48;74.91;96264.09;5052948;28;20469;-60
2022/06/25 00:53:41;;;;;;;4.80;4.03;;;;;;;14.47;75.09;96267.66;5052834;28;20052;-60
2022/06/25 00:56:10;;;;;;;4.50;3.85;;;;;;;14.47;74.99;96262.38;5052890;28;20542;-60
2022/06/25 00:58:41;;;;;;;4.55;4.15;;;;;;;14.43;75.23;96259.09;5056638;28;20494;-60
2022/06/25 01:01:09;;;;;;;4.88;4.40;;;;;;;14.42;75.11;96254.75;5057090;28;20114;-60
2022/06/25 01:03:37;;;;;;;4.88;4.18;;;;;;;14.43;75.27;96255.59;5056717;28;20049;-60
2022/06/25 01:06:06;;;;;;;4.72;4.00;;;;;;;14.35;75.61;96250.78;5056710;28;20088;-60
2022/06/25 01:08:36;;;;;;;4.40;4.00;;;;;;;14.34;75.74;96252.59;5056629;28;20446;-60
2022/06/25 01:11:04;;;;;;;4.97;4.47;;;;;;;14.31;76.34;96246.63;5056640;28;20052;-60
2022/06/25 01:13:32;;;;;;;5.47;4.95;;;;;;;14.26;76.46;96246.91;5056620;28;20485;-60
2022/06/25 01:16:00;;;;;;;4.68;4.15;;;;;;;14.27;76.44;96246.00;5056781;28;20052;-60
2022/06/25 01:18:28;;;;;;;4.78;4.38;;;;;;;14.29;75.96;96249.34;5056400;28;20430;-60
2022/06/25 01:20:55;;;;;;;6.78;4.72;;;;;;;14.28;75.79;96253.78;5056481;28;20407;-60
2022/06/25 01:23:24;;;;;;;7.47;4.10;;;;;;;14.26;76.03;96245.13;5056378;28;20103;-60
2022/06/25 01:25:51;;;;;;;6.85;4.35;;;;;;;14.26;76.48;96242.50;5056262;28;20047;-60
2022/06/25 01:28:18;;;;;;;8.65;4.30;;;;;;;14.22;76.46;96237.50;5056371;28;20077;-60
2022/06/25 01:30:45;;;;;;;6.47;4.35;;;;;;;14.21;77.21;96241.06;5056248;28;20102;-60
2022/06/25 01:33:12;;;;;;;8.80;4.40;;;;;;;14.22;76.79;96240.13;5056431;28;20549;-60
2022/06/25 01:35:39;;;;;;;5.72;4.07;;;;;;;14.20;76.73;96245.47;5055884;28;20053;-60
2022/06/25 01:38:06;;;;;;;4.97;4.53;;;;;;;14.17;77.16;96237.75;5056107;28;20079;-60
2022/06/25 01:40:35;;;;;;;4.95;4.45;;;;;;;14.17;77.19;96242.19;5056337;28;20045;-60
2022/06/25 01:43:02;;;;;;;5.50;4.82;;;;;;;14.15;77.25;96237.84;5056070;28;20099;-60
2022/06/25 01:45:32;;;;;;;4.97;4.47;;;;;;;14.14;76.53;96237.94;5055962;28;20487;-60
2022/06/25 01:48:00;;;;;;;5.72;5.22;;;;;;;14.12;76.82;96243.28;5055989;28;20496;-59
2022/06/25 01:50:27;;;;;;;5.20;4.70;;;;;;;14.08;77.10;96239.13;5055883;28;20124;-59
2022/06/25 01:52:54;;;;;;;8.02;4.75;;;;;;;14.07;77.31;96239.22;5056115;28;20088;-60
2022/06/25 01:55:21;;;;;;;5.13;4.63;;;;;;;14.10;77.09;96239.06;5055784;28;20124;-60
2022/06/25 01:57:51;;;;;;;6.63;4.53;;;;;;;14.02;76.54;96236.84;5055673;28;20051;-60
2022/06/25 02:00:20;;;;;;;5.05;4.50;;;;;;;14.00;76.82;96226.41;5055897;28;20083;-60
2022/06/25 02:02:48;;;;;;;5.00;4.47;;;;;;;14.05;76.48;96231.41;5056010;28;20103;-60
2022/06/25 02:05:16;;;;;;;4.63;4.22;;;;;;;14.05;76.47;96233.22;5055638;28;20110;-60
2022/06/25 02:07:44;;;;;;;7.47;4.43;;;;;;;14.07;76.50;96237.44;5055648;28;20091;-60
2022/06/25 02:10:11;;;;;;;6.50;4.18;;;;;;;14.05;76.42;96243.75;5054667;28;20098;-60
2022/06/25 02:12:38;;;;;;;6.80;4.78;;;;;;;14.02;76.78;96239.47;5055393;28;20052;-59
2022/06/25 02:15:08;;;;;;;5.20;4.25;;;;;;;14.02;76.76;96235.06;5055658;28;20041;-60
2022/06/25 02:17:35;;;;;;;5.85;4.60;;;;;;;14.05;76.67;96231.41;5055282;28;20506;-60
2022/06/25 02:20:02;;;;;;;4.60;4.20;;;;;;;14.01;77.03;96232.53;5055273;28;20090;-60
2022/06/25 02:22:29;;;;;;;6.38;4.95;;;;;;;13.96;77.34;96234.56;5055336;28;20077;-59
2022/06/25 02:24:56;;;;;;;5.25;4.50;;;;;;;13.94;77.52;96239.09;5055160;28;20095;-60
2022/06/25 02:27:23;;;;;;;8.82;4.47;;;;;;;13.90;77.57;96243.66;5055234;28;20040;-59
2022/06/25 02:29:50;;;;;;;5.72;5.10;;;;;;;13.84;78.24;96244.84;5055233;28;20045;-59
2022/06/25 02:32:19;;;;;;;5.22;4.70;;;;;;;13.83;77.77;96243.16;5055542;28;20073;-59
2022/06/25 02:34:46;;;;;;;8.63;4.97;;;;;;;13.77;78.46;96243.50;5054874;28;20068;-60
2022/06/25 02:37:13;;;;;;;7.28;4.70;;;;;;;13.73;78.63;96247.25;5055169;28;20160;-60
2022/06/25 02:39:41;;;;;;;5.60;4.80;;;;;;;13.66;78.51;96246.72;5055088;28;20178;-60
2022/06/25 02:42:08;;;;;;;6.25;4.88;;;;;;;13.63;78.79;96244.25;5054938;28;20099;-60
2022/06/25 02:44:35;;;;;;;5.28;4.70;;;;;;;13.71;78.72;96249.09;5054955;28;20123;-60
2022/06/25 02:47:02;;;;;;;7.43;4.40;;;;;;;13.73;78.45;96247.25;5054885;28;20048;-60
2022/06/25 02:49:30;;;;;;;6.43;4.65;;;;;;;13.76;78.43;96249.69;5054827;28;20098;-60
2022/06/25 02:51:57;;;;;;;6.43;4.78;;;;;;;13.74;78.33;96251.56;5054795;28;20045;-60
2022/06/25 02:54:24;;;;;;;4.93;4.43;;;;;;;13.75;78.32;96255.88;5054573;28;20145;-60
2022/06/25 02:59:39;;;;;;;5.75;4.32;;;;;;;13.69;78.40;96261.50;5054610;28;20103;-60
2022/06/25 03:02:07;;;;;;;6.93;4.80;;;;;;;13.64;79.21;96267.00;5054798;28;20171;-60
2022/06/25 03:04:35;;;;;;;6.13;4.78;;;;;;;13.67;79.67;96269.47;5054824;28;20103;-60
2022/06/25 03:07:02;;;;;;;5.57;5.07;;;;;;;13.63;79.45;96267.91;5054562;28;20045;-60
2022/06/25 03:09:29;;;;;;;6.68;4.97;;;;;;;13.70;79.16;96269.25;5054432;28;20052;-60
2022/06/25 03:11:56;;;;;;;4.78;4.38;;;;;;;13.73;78.92;96271.72;5054238;28;20550;-60
2022/06/25 03:14:23;;;;;;;5.68;4.03;;;;;;;13.75;78.27;96266.38;5054375;28;20044;-60
2022/06/25 03:16:51;;;;;;;7.60;4.47;;;;;;;13.75;78.35;96269.00;5054162;28;20049;-60
2022/06/25 03:19:18;;;;;;;6.53;4.75;;;;;;;13.80;78.33;96271.38;5054237;28;20045;-60
2022/06/25 03:21:46;;;;;;;4.70;4.30;;;;;;;13.87;78.29;96270.09;5054336;28;20132;-60
2022/06/25 03:24:13;;;;;;;5.88;4.30;;;;;;;13.97;78.09;96270.47;5054089;28;20072;-60
2022/06/25 03:26:41;;;;;;;4.40;3.97;;;;;;;14.04;78.17;96274.44;5054092;28;20044;-60
2022/06/25 03:29:08;;;;;;;6.40;4.40;;;;;;;14.10;78.01;96276.72;5054330;28;20598;-60
2022/06/25 03:31:35;;;;;;;4.57;4.13;;;;;;;14.15;77.96;96285.19;5053862;28;20053;-60
2022/06/25 03:34:02;;;;;;;4.85;4.32;;;;;;;14.18;77.97;96283.34;5053644;28;20084;-60
2022/06/25 03:36:29;;;;;;;6.93;4.38;;;;;;;14.29;78.30;96286.19;5053832;28;20049;-60
2022/06/25 03:38:58;;;;;;;4.13;3.72;;;;;;;14.64;77.90;96293.84;5053857;28;20556;-60
2022/06/25 03:41:35;;;;;;;3.85;3.45;;;;;;;15.10;76.30;96291.22;5053899;28;20110;-60
2022/06/25 03:44:03;;;;;;;5.03;3.75;;;;;;;15.42;74.71;96288.41;5053782;28;20049;-60
2022/06/25 03:46:30;;;;;;;3.58;3.28;;;;;;;15.59;73.70;96290.00;5053596;28;20136;-60
2022/06/25 03:48:58;;;;;;;6.43;3.55;;;;;;;15.73;72.94;96291.78;5053670;28;20399;-60
2022/06/25 03:51:25;;;;;;;5.60;3.30;;;;;;;15.87;72.57;96290.06;5053921;28;20473;-60
2022/06/25 03:53:52;;;;;;;2.97;2.75;;;;;;;16.22;71.85;96294.06;5053524;28;20461;-60
2022/06/25 03:56:21;;;;;;;6.65;2.88;;;;;;;16.66;70.53;96278.84;5053425;28;20067;-60
2022/06/25 03:58:49;;;;;;;4.47;2.80;;;;;;;17.15;69.38;96281.78;5053455;28;20482;-60
2022/06/25 04:01:17;;;;;;;3.85;3.00;;;;;;;17.62;68.14;96281.22;5053705;28;20048;-60
2022/06/25 04:03:44;;;;;;;4.60;2.50;;;;;;;18.03;66.54;96274.75;5053515;28;20045;-60
2022/06/25 04:06:12;;;;;;;6.20;2.67;;;;;;;18.52;65.55;96282.75;5053482;28;20045;-61
2022/06/25 04:08:39;;;;;;;5.18;2.70;;;;;;;19.03;64.18;96283.34;5053339;28;20491;-60
2022/06/25 04:11:06;;;;;;;2.40;2.20;;;;;;;19.47;63.27;96281.88;5053304;28;20045;-60
2022/06/25 04:13:35;;;;;;;3.10;2.63;;;;;;;19.90;61.27;96281.09;5053215;28;20080;-60
2022/06/25 04:16:02;;;;;;;3.58;2.45;;;;;;;20.29;60.44;96271.88;5053065;28;20487;-61
2022/06/25 04:18:29;;;;;;;3.30;2.72;;;;;;;20.65;59.42;96272.44;5053188;28;20048;-60
2022/06/25 04:20:56;;;;;;;3.20;2.28;;;;;;;21.08;58.27;96283.94;5053238;28;20053;-60
2022/06/25 04:23:23;;;;;;;2.90;2.63;;;;;;;21.43;57.65;96281.09;5053060;28;20403;-60
2022/06/25 04:25:51;;;;;;;3.50;2.75;;;;;;;21.75;57.50;96289.88;5053002;28;20135;-60
2022/06/25 04:31:04;;;;;;;2.50;2.13;;;;;;;22.38;56.07;96282.63;5053121;28;20114;-61
2022/06/25 04:33:31;;;;;;;3.97;2.40;;;;;;;22.83;55.36;96276.78;5052728;28;20506;-61
2022/06/25 04:35:59;;;;;;;2.60;2.30;;;;;;;23.22;54.53;96273.19;5053107;28;20459;-60
2022/06/25 04:38:26;;;;;;;2.33;2.13;;;;;;;23.55;53.58;96274.66;5052860;28;20081;-61
2022/06/25 04:40:53;;;;;;;3.05;2.40;;;;;;;23.91;53.33;96276.59;5053001;28;20056;-60
2022/06/25 04:43:21;;;;;;;2.92;2.38;;;;;;;24.27;52.63;96268.69;5052922;28;20045;-60
2022/06/25 04:45:48;;;;;;;2.53;2.30;;;;;;;24.55;52.46;96267.75;5052816;28;20044;-60
2022/06/25 04:48:17;;;;;;;4.00;2.38;;;;;;;24.72;52.52;96258.88;5052925;28;20654;-60
2022/06/25 04:50:44;;;;;;;3.33;2.20;;;;;;;24.94;52.36;96263.94;5052908;28;20079;-60
2022/06/25 04:53:12;;;;;;;2.42;1.77;;;;;;;25.26;51.40;96269.66;5052891;28;20067;-60
2022/06/25 04:55:39;;;;;;;2.55;1.90;;;;;;;25.45;51.28;96269.44;5052809;28;20055;-60
2022/06/25 04:58:07;;;;;;;5.95;2.50;;;;;;;25.76;50.24;96273.47;5052727;28;20127;-60
2022/06/25 05:00:34;;;;;;;3.15;2.15;;;;;;;26.06;49.92;96278.41;5052861;28;20041;-60
2022/06/25 05:03:01;;;;;;;4.30;2.20;;;;;;;26.32;49.84;96277.53;5052861;28;20122;-60
2022/06/25 05:05:31;;;;;;;3.83;2.03;;;;;;;26.52;49.38;96279.91;5052713;28;20056;-60
2022/06/25 05:07:58;;;;;;;3.63;2.20;;;;;;;26.86;49.12;96281.59;5052997;28;20056;-60
2022/06/25 05:10:26;;;;;;;4.25;2.00;;;;;;;27.12;47.42;96281.44;5052805;28;20091;-61
2022/06/25 05:15:37;;;;;;;3.72;2.13;;;;;;;27.50;48.63;96280.03;5053081;28;20517;-60
2022/06/25 05:18:05;;;;;;;2.75;2.15;;;;;;;27.74;47.36;96281.84;5052659;28;20049;-60
2022/06/25 05:20:36;;;;;;;2.38;2.10;;;;;;;27.99;47.56;96292.47;5052561;28;20045;-61
2022/06/25 05:23:04;;;;;;;4.95;2.20;;;;;;;28.28;46.29;96292.00;5052631;28;20376;-60
2022/06/25 05:25:31;;;;;;;3.97;2.20;;;;;;;28.44;47.67;96288.44;5052532;28;20052;-59
2022/06/25 05:27:58;;;;;;;3.83;2.22;;;;;;;28.73;47.85;96294.94;5052520;28;20041;-61
2022/06/25 05:30:27;;;;;;;6.32;2.28;;;;;;;28.97;46.29;96296.66;5052442;28;20045;-61
2022/06/25 05:32:54;;;;;;;4.38;1.92;;;;;;;29.22;45.02;96296.41;5052394;28;20132;-61
2022/06/25 05:35:21;;;;;;;2.70;2.10;;;;;;;29.41;42.32;96288.84;5052179;28;20487;-61
2022/06/25 05:37:50;;;;;;;5.78;2.20;;;;;;;29.63;42.10;96302.44;5052323;28;20102;-61
2022/06/25 05:40:17;;;;;;;4.85;2.13;;;;;;;29.85;41.51;96294.44;5052300;28;20057;-61
2022/06/25 05:42:44;;;;;;;4.45;2.10;;;;;;;30.05;40.70;96293.84;5052321;28;20045;-61
2022/06/25 05:45:12;;;;;;;2.78;2.10;;;;;;;30.29;40.09;96305.38;5055065;28;20041;-61
2022/06/25 05:47:39;;;;;;;5.85;2.15;;;;;;;30.47;38.67;96303.09;5056114;28;20120;-61
2022/06/25 05:50:08;;;;;;;4.88;2.33;;;;;;;30.67;39.31;96296.25;5055933;28;20055;-61
2022/06/25 05:52:36;;;;;;;2.22;2.03;;;;;;;30.73;38.24;96298.19;5055900;28;20482;-61
2022/06/25 05:55:05;;;;;;;6.55;2.75;;;;;;;30.66;39.31;96294.59;5055902;28;20483;-61
2022/06/25 05:57:32;;;;;;;3.45;2.13;;;;;;;30.84;39.42;96299.53;5055950;28;20053;-61
2022/06/25 06:00:00;;;;;;;2.33;2.10;;;;;;;31.04;39.53;96290.78;5055826;28;20044;-61
2022/06/25 06:02:27;;;;;;;4.93;2.28;;;;;;;31.31;39.46;96293.69;5055735;28;20143;-61
2022/06/25 06:04:55;;;;;;;4.88;1.88;;;;;;;31.59;38.27;96285.63;5055708;28;20049;-61
2022/06/25 06:07:23;;;;;;;2.20;2.00;;;;;;;31.85;37.95;96288.66;5055870;28;20041;-61
2022/06/25 06:09:50;;;;;;;5.40;2.15;;;;;;;32.02;36.44;96292.72;5055577;28;20045;-61
2022/06/25 06:12:19;;;;;;;4.15;1.85;;;;;;;32.15;36.74;96283.00;5055572;28;20107;-61
2022/06/25 06:14:46;;;;;;;2.28;2.08;;;;;;;32.44;36.77;96288.31;5055515;28;20053;-61
2022/06/25 06:17:14;;;;;;;3.22;2.08;;;;;;;32.61;36.52;96286.06;5055438;28;20048;-61
2022/06/25 06:19:42;;;;;;;6.40;2.13;;;;;;;32.77;35.32;96290.25;5055443;28;20402;-61
2022/06/25 06:22:10;;;;;;;4.13;2.05;;;;;;;32.81;35.57;96290.69;5055360;28;20053;-61
2022/06/25 06:24:38;;;;;;;4.30;2.10;;;;;;;32.93;34.91;96294.44;5055211;28;20041;-61
2022/06/25 06:27:06;;;;;;;7.53;1.90;;;;;;;33.06;35.07;96300.94;5055474;28;20049;-60
2022/06/25 06:29:35;;;;;;;3.53;2.15;;;;;;;33.25;34.41;96296.53;5055169;28;20072;-60
2022/06/25 06:32:02;;;;;;;2.90;2.20;;;;;;;33.41;33.90;96298.81;5055260;28;20131;-60
2022/06/25 06:34:29;;;;;;;4.95;2.20;;;;;;;33.43;33.59;96297.81;5054788;28;20045;-61
2022/06/25 06:36:56;;;;;;;4.47;2.28;;;;;;;33.57;34.17;96298.59;5055049;28;20495;-61
2022/06/25 06:39:23;;;;;;;3.15;2.00;;;;;;;33.69;32.77;96299.66;5055130;28;20163;-61
2022/06/25 06:41:51;;;;;;;4.07;2.65;;;;;;;33.72;33.22;96301.94;5054869;28;20053;-61
2022/06/25 06:44:18;;;;;;;3.28;2.13;;;;;;;33.25;31.43;96304.66;5054938;28;20139;-60
2022/06/25 06:46:47;;;;;;;2.45;2.17;;;;;;;32.95;32.19;96302.38;5055068;28;20380;-60
2022/06/25 06:49:14;;;;;;;2.20;1.92;;;;;;;33.05;35.15;96310.09;5054921;28;20080;-61
2022/06/25 06:51:41;;;;;;;5.18;2.35;;;;;;;33.25;33.60;96307.38;5054765;28;20044;-61
2022/06/25 06:54:09;;;;;;;2.65;2.15;;;;;;;33.39;31.83;96305.50;5054714;28;20132;-60
2022/06/25 06:56:36;;;;;;;2.15;1.95;;;;;;;33.54;30.94;96302.56;5054417;28;20045;-60
2022/06/25 06:59:04;;;;;;;4.57;2.17;;;;;;;33.51;31.22;96303.84;5054540;28;20048;-60
2022/06/25 07:01:31;;;;;;;4.28;2.08;;;;;;;33.44;32.09;96302.16;5054632;28;20103;-60
2022/06/25 07:04:00;;;;;;;3.13;2.30;;;;;;;33.22;33.10;96303.22;5054465;28;20410;-61
2022/06/25 07:06:27;;;;;;;3.35;2.25;;;;;;;33.16;32.62;96295.94;5054486;28;20059;-60
2022/06/25 07:08:54;;;;;;;4.43;2.10;;;;;;;33.24;31.66;96295.72;5054509;28;20049;-60
2022/06/25 07:11:30;;;;;;;3.60;2.20;;;;;;;33.07;33.37;96283.66;5054408;28;20052;-61
2022/06/25 07:13:59;;;;;;;2.22;1.92;;;;;;;33.11;31.30;96284.91;5054340;28;20057;-60
2022/06/25 07:16:28;;;;;;;3.65;2.05;;;;;;;33.32;32.96;96294.69;5054310;28;20132;-61
2022/06/25 07:18:56;;;;;;;3.35;1.85;;;;;;;33.70;30.90;96290.47;5054082;28;20049;-60
2022/06/25 07:21:25;;;;;;;4.68;2.08;;;;;;;33.72;30.40;96296.53;5054132;28;20049;-60
2022/06/25 07:23:53;;;;;;;2.65;2.03;;;;;;;33.83;30.63;96295.00;5054124;28;20479;-61
2022/06/25 07:26:21;;;;;;;5.00;1.73;;;;;;;34.02;30.34;96297.88;5054357;28;20049;-61
2022/06/25 07:28:49;;;;;;;3.72;1.92;;;;;;;34.16;29.84;96291.38;5054284;28;20545;-60
2022/06/25 07:31:17;;;;;;;3.13;2.13;;;;;;;34.37;29.66;96291.31;5053951;28;20048;-60
2022/06/25 07:33:44;;;;;;;4.40;1.95;;;;;;;34.23;28.95;96294.09;5053906;28;20053;-60
2022/06/25 07:36:11;;;;;;;4.10;1.98;;;;;;;33.94;29.18;96288.09;5054003;28;20486;-60
2022/06/25 07:38:41;;;;;;;2.58;1.83;;;;;;;33.85;30.54;96298.34;5053837;28;20045;-60
2022/06/25 07:41:08;;;;;;;3.40;2.03;;;;;;;33.78;28.01;96292.13;5054069;28;20053;-60
2022/06/25 07:43:38;;;;;;;4.13;1.92;;;;;;;34.06;29.23;96298.28;5054003;28;20095;-60
2022/06/25 07:46:05;;;;;;;3.05;2.08;;;;;;;34.27;26.98;96299.88;5053841;28;20044;-60
2022/06/25 07:48:33;;;;;;;8.02;2.05;;;;;;;34.18;28.78;96291.16;5053587;28;20380;-60
2022/06/25 07:53:47;;;;;;;3.55;1.90;;;;;;;34.23;27.66;96298.66;5053660;28;20075;-60
2022/06/25 07:56:14;;;;;;;5.13;2.28;;;;;;;34.51;27.08;96300.19;5053502;28;20423;-61
2022/06/25 07:58:42;;;;;;;5.38;2.17;;;;;;;34.60;27.80;96304.31;5053456;28;20542;-61
2022/06/25 08:01:12;;;;;;;2.15;1.92;;;;;;;34.58;26.89;96306.41;5053580;28;20071;-61
2022/06/25 08:03:39;;;;;;;4.97;2.10;;;;;;;33.77;27.01;96294.00;5053479;28;20056;-60
2022/06/25 08:06:06;;;;;;;3.50;2.20;;;;;;;33.32;27.69;96283.00;5053218;28;20087;-61
2022/06/25 08:08:35;;;;;;;4.95;2.10;;;;;;;32.42;28.97;96295.78;5053289;28;20124;-61
2022/06/25 08:11:04;;;;;;;2.42;1.80;;;;;;;31.94;32.41;96284.78;5053470;28;20159;-61
2022/06/25 08:13:31;;;;;;;3.10;2.13;;;;;;;31.90;32.87;96283.47;5053164;28;20049;-61
2022/06/25 08:15:59;;;;;;;4.45;2.03;;;;;;;31.95;29.96;96278.34;5053290;28;20111;-61
2022/06/25 08:18:26;;;;;;;2.65;2.33;;;;;;;32.19;30.29;96283.41;5053059;28;20060;-60
2022/06/25 08:20:55;;;;;;;2.90;2.03;;;;;;;32.18;32.49;96290.72;5053152;28;20084;-61
2022/06/25 08:23:22;;;;;;;3.22;1.75;;;;;;;32.18;29.77;96279.91;5053245;28;20049;-61
2022/06/25 08:25:53;;;;;;;5.82;2.42;;;;;;;32.18;29.29;96262.81;5077599;22;20055;-61
2022/06/25 08:28:22;;;;;;;6.45;1.90;;;;;;;32.49;30.15;96273.16;5012978;28;20054;-61
2022/06/25 08:30:49;;;;;;;4.03;2.17;;;;;;;32.56;28.52;96278.56;5013456;28;20045;-60
2022/06/25 08:33:17;;;;;;;5.88;1.88;;;;;;;32.74;31.17;96274.41;5013403;28;20104;-61
2022/06/25 08:35:45;;;;;;;5.57;2.00;;;;;;;32.87;29.59;96276.31;5013279;28;20061;-61
2022/06/25 08:38:16;;;;;;;4.55;2.00;;;;;;;32.96;28.40;96269.63;5013276;28;20058;-61
2022/06/25 08:40:43;;;;;;;2.35;1.83;;;;;;;32.86;26.80;96270.06;5013284;28;20092;-60
2022/06/25 08:43:11;;;;;;;4.97;2.10;;;;;;;32.96;28.87;96268.81;5013326;28;20126;-61
2022/06/25 08:45:40;;;;;;;4.90;2.22;;;;;;;32.87;27.13;96271.72;5013204;28;20058;-61
2022/06/25 08:48:12;;;;;;;3.75;2.20;;;;;;;32.74;27.70;96269.84;5013309;28;20049;-60
2022/06/25 08:50:39;;;;;;;3.10;2.05;;;;;;;32.87;28.62;96273.63;5013125;28;20511;-61
2022/06/25 08:53:07;;;;;;;3.33;1.90;;;;;;;32.73;27.10;96265.47;5013082;28;20046;-61
2022/06/25 08:55:38;;;;;;;4.45;2.20;;;;;;;32.66;26.60;96270.06;5013111;28;20500;-61
2022/06/25 08:58:07;;;;;;;2.95;2.17;;;;;;;31.99;27.79;96270.69;5013105;28;20054;-60
2022/06/25 09:00:38;;;;;;;6.47;2.00;;;;;;;32.20;29.32;96266.19;5013022;28;20042;-60
2022/06/25 09:03:08;;;;;;;2.22;1.80;;;;;;;32.48;24.61;96271.47;5012947;28;20412;-61
2022/06/25 09:05:37;;;;;;;2.30;1.60;;;;;;;32.49;26.28;96265.03;5013164;28;20200;-61
2022/06/25 09:08:06;;;;;;;7.03;1.60;;;;;;;32.73;26.66;96270.91;5013093;28;20049;-61
2022/06/25 09:10:35;;;;;;;1.63;1.30;;;;;;;32.96;23.71;96268.81;5013116;28;20050;-60
2022/06/25 09:13:03;;;;;;;5.00;1.60;;;;;;;32.69;23.09;96272.34;5013015;28;20042;-61
2022/06/25 09:15:33;;;;;;;2.85;2.10;;;;;;;32.70;27.20;96276.72;5013016;28;20050;-60
2022/06/25 09:18:08;;;;;;;2.55;2.25;;;;;;;32.47;29.86;96274.38;5013840;28;20046;-60
2022/06/25 09:20:37;;;;;;;5.80;2.50;;;;;;;32.19;31.63;96269.91;5016893;28;20452;-60
2022/06/25 09:23:06;;;;;;;7.55;2.53;;;;;;;32.15;32.67;96274.88;5016804;28;20172;-60
2022/06/25 09:25:37;;;;;;;3.27;2.30;;;;;;;32.00;31.53;96261.53;5016757;28;20081;-61
2022/06/25 09:28:04;;;;;;;6.75;2.60;;;;;;;31.89;32.50;96268.28;5016677;28;20042;-61
2022/06/25 09:30:32;;;;;;;2.90;2.53;;;;;;;31.98;35.86;96267.13;5016543;28;20455;-61
2022/06/25 09:33:01;;;;;;;4.45;3.13;;;;;;;32.05;31.75;96263.63;5016505;28;20050;-61
2022/06/25 09:35:35;;;;;;;5.50;2.38;;;;;;;32.06;30.65;96262.56;5016585;28;20050;-60
2022/06/25 09:38:07;;;;;;;6.20;2.70;;;;;;;31.69;30.44;96255.50;5016287;28;20052;-61
2022/06/25 09:40:35;;;;;;;6.22;2.17;;;;;;;31.76;33.68;96258.25;5016659;28;20053;-61
2022/06/25 09:43:13;;;;;;;3.70;2.83;;;;;;;31.85;33.73;96256.22;5016450;28;20049;-61
2022/06/25 09:45:41;;;;;;;3.63;2.38;;;;;;;32.12;31.88;96257.19;5016427;28;20418;-61
2022/06/25 09:48:18;;;;;;;8.68;2.20;;;;;;;32.25;30.07;96261.81;5016224;28;20053;-61
2022/06/25 09:51:06;;;;;;;4.05;2.33;;;;;;;32.39;29.94;96257.25;5016294;28;20411;-60
2022/06/25 09:53:34;;;;;;;6.10;2.53;;;;;;;32.62;30.12;96247.13;5016409;28;20053;-61
2022/06/25 09:56:02;;;;;;;2.85;2.22;;;;;;;32.81;31.27;96241.94;5016150;28;20481;-61
2022/06/25 09:58:32;;;;;;;5.07;2.58;;;;;;;32.91;30.03;96245.06;5015919;28;20061;-61
2022/06/25 10:00:59;;;;;;;4.03;2.30;;;;;;;33.17;32.26;96239.88;5015924;28;20046;-60
2022/06/25 10:03:27;;;;;;;5.18;2.40;;;;;;;33.33;29.31;96239.44;5016020;28;20045;-60
2022/06/25 10:05:57;;;;;;;4.43;2.38;;;;;;;33.31;29.73;96246.94;5016021;28;20076;-60
2022/06/25 10:08:25;;;;;;;3.03;2.22;;;;;;;33.37;27.90;96243.41;5015970;28;20050;-66
2022/06/25 10:10:55;;;;;;;4.00;2.25;;;;;;;33.53;27.37;96241.28;5015970;28;20050;-62
2022/06/25 10:13:24;;;;;;;2.63;2.20;;;;;;;33.45;29.13;96244.22;5014317;28;20092;-62
2022/06/25 10:15:52;;;;;;;4.78;2.45;;;;;;;33.32;28.09;96245.94;5002169;28;20056;-62
2022/06/25 10:18:20;;;;;;;6.45;2.58;;;;;;;33.10;29.13;96254.25;5007868;28;20125;-62
2022/06/25 10:20:47;;;;;;;3.83;2.10;;;;;;;32.48;29.24;96252.50;5015725;28;20103;-62
2022/06/25 10:23:17;;;;;;;7.20;2.67;;;;;;;31.91;30.85;96250.00;5015608;28;20412;-62
2022/06/25 10:25:47;;;;;;;3.38;2.50;;;;;;;31.61;33.42;96250.28;5002997;28;20065;-62
2022/06/25 10:28:15;;;;;;;3.67;2.15;;;;;;;31.85;33.08;96243.56;4995783;28;20133;-62
2022/06/25 10:30:48;;;;;;;5.80;2.50;;;;;;;31.77;29.40;96255.38;4995165;28;20096;-62
2022/06/25 10:33:16;;;;;;;6.10;2.50;;;;;;;31.40;30.05;96244.75;4995827;28;20051;-62
2022/06/25 10:35:44;;;;;;;3.17;2.50;;;;;;;30.99;32.14;96246.31;4995804;28;20125;-62
2022/06/25 10:38:16;;;;;;;9.90;2.83;;;;;;;30.92;33.86;96256.22;4995674;28;20054;-62
2022/06/25 10:40:53;;;;;;;9.48;2.88;;;;;;;30.84;34.39;96250.97;4995669;28;20084;-62
2022/06/25 10:43:42;;;;;;;4.18;2.33;;;;;;;30.80;35.59;96252.38;4995539;28;20083;-62
2022/06/25 10:46:31;;;;;;;8.68;2.83;;;;;;;30.92;32.82;96244.59;4995536;28;20098;-63
2022/06/25 10:49:04;;;;;;;8.57;2.78;;;;;;;31.32;31.92;96244.88;4995497;28;20137;-62
2022/06/25 10:51:35;;;;;;;6.63;3.05;;;;;;;31.65;32.42;96244.28;4995559;28;20046;-62
2022/06/25 10:54:04;;;;;;;8.05;3.15;;;;;;;31.75;32.17;96259.28;4995433;28;20050;-62
2022/06/25 10:56:45;;;;;;;11.40;4.50;;;;;;;31.61;31.92;96247.59;4995435;28;20050;-62
2022/06/25 10:59:36;;;;;;;;;;;;;;;31.44;32.80;96253.31;4996025;28;20160;-62
2022/06/25 11:02:06;;;;;;;11.93;4.38;;;;;;;31.48;33.28;96242.94;4995243;28;20295;-62
2022/06/25 11:04:34;;;;;;;4.78;2.67;;;;;;;31.74;34.90;96247.66;4995421;28;20050;-62
2022/06/25 11:07:09;;;;;;;9.23;3.90;;;;;;;31.93;33.68;96241.75;4995282;28;20054;-62
2022/06/25 11:09:37;;;;;;;6.45;2.83;;;;;;;31.96;33.61;96249.44;4995250;28;20081;-62
2022/06/25 11:12:08;;;;;;;6.75;3.22;;;;;;;31.89;31.80;96244.81;4994282;28;20046;-62
2022/06/25 11:14:36;;;;;;;6.00;2.97;;;;;;;31.96;30.48;96238.63;4995175;28;20559;-62
2022/06/25 11:17:09;;;;;;;5.70;2.70;;;;;;;31.75;32.81;96240.34;4995044;28;20443;-62
2022/06/25 11:19:37;;;;;;;4.88;2.83;;;;;;;31.49;33.78;96250.84;4995036;28;20104;-62
2022/06/25 11:22:05;;;;;;;4.22;2.60;;;;;;;31.56;34.18;96245.47;4994987;28;20046;-62
2022/06/25 11:24:33;;;;;;;3.67;2.88;;;;;;;31.81;31.62;96244.16;4994817;28;20139;-62
2022/06/25 11:29:49;;;;;;;4.18;2.60;;;;;;;31.93;31.66;96239.84;5005146;28;20418;-62
2022/06/25 11:32:16;;;;;;;;;;;;;;;31.73;33.44;96235.19;5014247;28;20463;-63
2022/06/25 11:34:43;;;;;;;2.47;2.25;;;;;;;31.62;31.55;96233.88;5014093;28;20326;-62
2022/06/25 11:37:12;;;;;;;3.47;2.65;;;;;;;31.60;32.32;96235.94;5014449;28;20056;-62
2022/06/25 11:39:41;;;;;;;4.63;2.58;;;;;;;31.80;34.01;96234.34;5014197;28;20103;-62
2022/06/25 11:42:10;;;;;;;2.95;2.65;;;;;;;31.90;33.71;96232.09;5012890;28;20077;-62
2022/06/25 11:44:44;;;;;;;3.17;2.40;;;;;;;31.83;32.01;96226.69;5014125;28;20053;-62
2022/06/25 11:47:13;;;;;;;5.03;2.70;;;;;;;31.67;32.79;96227.03;5014437;28;20053;-62
2022/06/25 11:49:44;;;;;;;2.92;2.65;;;;;;;31.52;35.10;96228.00;5014047;28;20488;-62
2022/06/25 11:52:12;;;;;;;4.78;2.70;;;;;;;31.45;35.94;96225.25;5014000;28;20046;-62
2022/06/25 11:54:40;;;;;;;7.18;2.83;;;;;;;31.36;33.53;96229.97;5013833;28;20435;-62
2022/06/25 11:57:10;;;;;;;4.90;2.83;;;;;;;31.22;35.46;96217.41;5013994;28;20046;-62